Time;durP1;ratioP1;P1;durP2;ratioP2;P2;SDS_P1;SDS_P2;PMS_P1;PMS_P2;Temp;Humidity;BMP_temperature;BMP_pressure;BME280_temperature;BME280_humidity;BME280_pressure;Samples;Min_cycle;Max_cycle;Signal;HPM_P1;HPM_P2
2022/04/27 00:01:49;;;;;;;;;;;;;;;16.36;51.54;99771.00;4415677;32;20044;-87
2022/04/27 00:04:17;;;;;;;;;;;;;;;16.77;50.18;99772.37;4413151;32;19986;-86
2022/04/27 00:06:44;;;;;;;;;;;;;;;16.68;49.63;99768.94;4415509;32;19981;-89
2022/04/27 00:09:11;;;;;;;;;;;;;;;16.84;48.49;99767.06;4415358;32;19993;-90
2022/04/27 00:11:38;;;;;;;;;;;;;;;16.86;48.48;99772.28;4413430;32;19974;-85
2022/04/27 00:14:05;;;;;;;;;;;;;;;17.03;48.66;99775.56;4415554;32;19974;-87
2022/04/27 00:16:32;;;;;;;;;;;;;;;17.35;47.64;99776.94;4415311;32;20069;-87
2022/04/27 00:18:59;;;;;;;;;;;;;;;17.31;47.47;99785.72;4414913;32;20345;-83
2022/04/27 00:21:26;;;;;;;;;;;;;;;17.31;47.88;99785.72;4415180;32;20048;-87
2022/04/27 00:23:53;;;;;;;;;;;;;;;17.50;47.10;99787.22;4416117;32;19982;-86
2022/04/27 00:26:20;;;;;;;;;;;;;;;17.49;47.12;99784.66;4415401;32;19993;-88
2022/04/27 00:28:47;;;;;;;;;;;;;;;17.47;46.66;99782.03;4415163;32;19971;-87
2022/04/27 00:31:13;;;;;;;;;;;;;;;17.70;45.93;99779.09;4415249;32;19990;-87
2022/04/27 00:33:41;;;;;;;;;;;;;;;17.70;46.11;99788.72;4415180;32;20479;-88
2022/04/27 00:36:08;;;;;;;;;;;;;;;17.80;47.06;99779.87;4415002;32;20372;-86
2022/04/27 00:38:34;;;;;;;;;;;;;;;17.79;46.27;99783.38;4415736;32;20049;-86
2022/04/27 00:41:01;;;;;;;;;;;;;;;17.84;45.42;99781.56;4418501;32;19977;-84
2022/04/27 00:43:35;;;;;;;;;;;;;;;17.90;45.42;99789.34;4416590;32;19974;-84
2022/04/27 00:46:02;;;;;;;;;;;;;;;17.93;46.08;99791.03;4417007;32;20365;-86
2022/04/27 00:48:29;;;;;;;;;;;;;;;17.81;45.44;99792.09;4417069;32;20271;-87
2022/04/27 00:50:56;;;;;;;;;;;;;;;17.79;45.75;99799.09;4415999;32;20004;-81
2022/04/27 00:53:23;;;;;;;;;;;;;;;17.41;46.47;99795.19;4415816;32;20310;-87
2022/04/27 00:55:50;;;;;;;;;;;;;;;17.69;45.83;99802.69;4417153;32;19981;-86
2022/04/27 00:58:17;;;;;;;;;;;;;;;17.40;46.70;99796.09;3777176;32;10000315;-85
2022/04/27 01:01:04;;;;;;;;;;;;;;;17.61;46.04;99801.06;4385635;32;19983;-86
2022/04/27 01:03:35;;;;;;;;;;;;;;;17.81;46.31;99797.31;4386177;32;20040;-89
2022/04/27 01:06:05;;;;;;;;;;;;;;;17.67;46.51;99795.69;4385062;32;19989;-87
2022/04/27 01:08:32;;;;;;;;;;;;;;;17.73;46.72;99804.38;4386508;32;20305;-87
2022/04/27 01:10:59;;;;;;;;;;;;;;;17.66;46.88;99800.97;4386656;32;20002;-86
2022/04/27 01:13:27;;;;;;;;;;;;;;;17.62;47.30;99807.16;4384376;32;20001;-86
2022/04/27 01:15:55;;;;;;;;;;;;;;;17.68;47.37;99801.84;4386874;32;20359;-86
2022/04/27 01:18:22;;;;;;;;;;;;;;;17.79;46.86;99804.31;4386070;32;20355;-83
2022/04/27 01:20:50;;;;;;;;;;;;;;;17.66;47.44;99801.84;4386829;32;20041;-87
2022/04/27 01:23:17;;;;;;;;;;;;;;;17.47;48.47;99808.19;4385116;32;19990;-85
2022/04/27 01:25:52;;;;;;;;;;;;;;;17.59;48.62;99805.44;4385835;32;20016;-86
2022/04/27 01:28:23;;;;;;;;;;;;;;;17.53;48.95;99809.87;4384605;32;20030;-87
2022/04/27 01:30:55;;;;;;;;;;;;;;;17.43;50.06;99803.91;4374329;32;20026;-87
2022/04/27 01:33:23;;;;;;;;;;;;;;;17.42;50.41;99810.00;4384912;32;20687;-85
2022/04/27 01:35:50;;;;;;;;;;;;;;;17.54;50.64;99814.22;4384220;32;19992;-88
2022/04/27 01:38:18;;;;;;;;;;;;;;;17.44;50.91;99813.47;4386881;32;19986;-85
2022/04/27 01:40:45;;;;;;;;;;;;;;;17.24;51.50;99820.69;4389987;32;19991;-89
2022/04/27 01:43:15;;;;;;;;;;;;;;;17.04;52.45;99840.09;4386032;32;20013;-85
2022/04/27 01:45:42;;;;;;;;;;;;;;;16.83;53.38;99837.69;4386342;32;20014;-88
2022/04/27 01:48:10;;;;;;;;;;;;;;;16.58;54.11;99850.94;4358441;32;19982;-86
2022/04/27 01:50:37;;;;;;;;;;;;;;;16.78;53.14;99847.31;4400781;32;20331;-84
2022/04/27 01:55:50;;;;;;;;;;;;;;;16.38;54.58;99852.84;4400260;32;19996;-86
2022/04/27 01:58:18;;;;;;;;;;;;;;;16.70;54.05;99856.06;4401055;32;20028;-85
2022/04/27 02:00:47;;;;;;;;;;;;;;;17.06;53.46;99853.12;4400484;32;20260;-86
2022/04/27 02:03:15;;;;;;;;;;;;;;;16.80;54.65;99846.41;4400844;32;19986;-85
2022/04/27 02:05:42;;;;;;;;;;;;;;;16.99;54.12;99841.87;4401142;32;19982;-85
2022/04/27 02:08:09;;;;;;;;;;;;;;;16.79;55.09;99849.06;4401242;32;19997;-86
2022/04/27 02:10:38;;;;;;;;;;;;;;;16.98;53.83;99841.91;4401601;32;20873;-85
2022/04/27 02:13:05;;;;;;;;;;;;;;;16.89;54.16;99832.41;4399969;32;20328;-86
2022/04/27 02:15:32;;;;;;;;;;;;;;;16.82;55.33;99823.75;4400451;32;19993;-86
2022/04/27 02:18:00;;;;;;;;;;;;;;;16.70;56.08;99829.06;4397534;32;19986;-85
2022/04/27 02:20:27;;;;;;;;;;;;;;;16.87;55.54;99821.06;4384457;32;20008;-85
2022/04/27 02:22:54;;;;;;;;;;;;;;;16.96;55.09;99821.00;4388109;32;19990;-85
2022/04/27 02:25:22;;;;;;;;;;;;;;;16.89;55.68;99820.19;4401485;32;19975;-85
2022/04/27 02:27:49;;;;;;;;;;;;;;;16.92;55.89;99814.06;4379183;32;20021;-85
2022/04/27 02:30:18;;;;;;;;;;;;;;;16.83;56.39;99808.94;4400670;32;20640;-85
2022/04/27 02:32:46;;;;;;;;;;;;;;;16.68;56.77;99813.38;4400675;32;19996;-88
2022/04/27 02:35:14;;;;;;;;;;;;;;;16.67;56.81;99809.03;4400981;32;20013;-84
2022/04/27 02:37:40;;;;;;;;;;;;;;;16.53;57.66;99808.31;4401226;32;19990;-84
2022/04/27 02:40:09;;;;;;;;;;;;;;;16.51;57.45;99812.66;4399706;32;20120;-85
2022/04/27 02:42:36;;;;;;;;;;;;;;;16.60;56.72;99811.72;4401823;32;20069;-84
2022/04/27 02:45:03;;;;;;;;;;;;;;;16.71;56.73;99800.28;4400717;32;20677;-85
2022/04/27 02:47:31;;;;;;;;;;;;;;;16.71;56.97;99807.25;4401325;32;19986;-84
2022/04/27 02:52:46;;;;;;;;;;;;;;;16.59;57.23;99795.19;4401189;32;19996;-84
2022/04/27 02:55:14;;;;;;;;;;;;;;;16.64;56.70;99800.34;4401184;32;19993;-84
2022/04/27 02:57:41;;;;;;;;;;;;;;;16.68;55.88;99792.47;4400194;32;19986;-85
2022/04/27 03:00:08;;;;;;;;;;;;;;;16.56;56.33;99795.22;4401075;32;19978;-87
2022/04/27 03:02:35;;;;;;;;;;;;;;;16.63;55.96;99791.66;4399702;32;20000;-84
2022/04/27 03:05:02;;;;;;;;;;;;;;;16.68;56.76;99795.06;4401252;32;20033;-86
2022/04/27 03:07:29;;;;;;;;;;;;;;;16.84;56.47;99790.59;4399891;32;19982;-84
2022/04/27 03:09:56;;;;;;;;;;;;;;;16.74;56.95;99800.25;4401557;32;19982;-87
2022/04/27 03:12:24;;;;;;;;;;;;;;;16.67;56.66;99801.19;4400304;32;20046;-85
2022/04/27 03:14:51;;;;;;;;;;;;;;;16.55;57.14;99809.13;4400328;32;20029;-85
2022/04/27 03:17:17;;;;;;;;;;;;;;;16.45;57.38;99807.50;4248761;32;5001193;-82
2022/04/27 03:19:44;;;;;;;;;;;;;;;16.26;58.31;99812.84;4400974;32;19974;-83
2022/04/27 03:22:12;;;;;;;;;;;;;;;16.11;58.40;99812.97;4399903;32;20029;-86
2022/04/27 03:24:39;;;;;;;;;;;;;;;16.34;57.92;99819.78;4400736;32;19986;-83
2022/04/27 03:27:06;;;;;;;;;;;;;;;16.40;57.76;99814.50;4399023;32;19978;-83
2022/04/27 03:29:33;;;;;;;;;;;;;;;16.54;57.57;99823.09;4400842;32;20035;-86
2022/04/27 03:32:00;;;;;;;;;;;;;;;16.42;58.08;99825.81;4401146;32;19994;-84
2022/04/27 03:34:27;;;;;;;;;;;;;;;16.51;58.01;99828.34;4400854;32;20389;-89
2022/04/27 03:36:54;;;;;;;;;;;;;;;16.40;58.42;99819.72;4401427;32;19986;-86
2022/04/27 03:39:21;;;;;;;;;;;;;;;16.50;58.10;99826.63;4401464;32;20352;-84
2022/04/27 03:42:08;;;;;;;;;;;;;;;16.31;58.69;99825.03;4400492;32;19974;-87
2022/04/27 03:44:36;;;;;;;;;;;;;;;16.30;58.64;99828.50;4401295;32;19970;-84
2022/04/27 03:47:04;;;;;;;;;;;;;;;16.25;58.96;99831.16;4401429;32;20048;-83
2022/04/27 03:49:32;;;;;;;;;;;;;;;16.47;58.11;99826.66;4400667;32;19982;-86
2022/04/27 03:51:59;;;;;;;;;;;;;;;16.51;57.89;99830.97;4396691;32;20105;-84
2022/04/27 03:54:25;;;;;;;;;;;;;;;16.31;58.49;99832.87;4384988;32;19990;-85
2022/04/27 03:56:53;;;;;;;;;;;;;;;16.52;57.86;99845.75;4379798;32;19993;-86
2022/04/27 03:59:19;;;;;;;;;;;;;;;16.25;58.87;99834.63;4384856;32;19986;-86
2022/04/27 04:01:46;;;;;;;;;;;;;;;16.36;58.53;99841.53;4385474;32;19982;-85
2022/04/27 04:04:17;;;;;;;;;;;;;;;16.30;58.80;99838.94;4384790;32;19989;-88
2022/04/27 04:06:44;;;;;;;;;;;;;;;16.19;59.36;99841.66;4385577;32;20021;-87
2022/04/27 04:09:11;;;;;;;;;;;;;;;16.25;58.97;99847.69;4385288;32;20752;-83
2022/04/27 04:11:38;;;;;;;;;;;;;;;16.35;58.63;99842.41;4385859;32;19991;-83
2022/04/27 04:14:06;;;;;;;;;;;;;;;16.28;58.45;99852.91;4383981;32;19993;-85
2022/04/27 04:16:34;;;;;;;;;;;;;;;16.35;58.50;99852.88;4385224;32;20072;-87
2022/04/27 04:19:01;;;;;;;;;;;;;;;16.25;58.84;99857.28;4385172;32;19986;-87
2022/04/27 04:21:29;;;;;;;;;;;;;;;16.29;58.63;99853.75;4385399;32;19991;-86
2022/04/27 04:23:56;;;;;;;;;;;;;;;16.34;58.55;99866.81;4385354;32;20013;-83
2022/04/27 04:29:09;;;;;;;;;;;;;;;16.21;58.71;99866.88;4384831;32;19996;-84
2022/04/27 04:31:36;;;;;;;;;;;;;;;16.17;58.75;99872.13;4381616;32;20038;-81
2022/04/27 04:34:08;;;;;;;;;;;;;;;16.30;58.46;99880.75;4380409;32;20013;-84
2022/04/27 04:36:35;;;;;;;;;;;;;;;16.37;58.44;99882.44;4377364;32;19996;-84
2022/04/27 04:39:03;;;;;;;;;;;;;;;16.37;57.93;99882.44;4380042;32;22160;-84
2022/04/27 04:41:34;;;;;;;;;;;;;;;16.45;58.26;99888.50;4380826;32;20012;-84
2022/04/27 04:44:19;;;;;;;;;;;;;;;16.44;58.27;99889.38;4379703;32;20061;-81
2022/04/27 04:46:56;;;;;;;;;;;;;;;16.44;58.49;99885.00;4382461;32;20029;-80
2022/04/27 04:49:33;;;;;;;;;;;;;;;16.36;58.47;99883.31;4383228;32;20010;-80
2022/04/27 04:52:01;;;;;;;;;;;;;;;16.45;57.82;99880.66;4383414;32;19986;-79
2022/04/27 04:54:30;;;;;;;;;;;;;;;16.54;57.72;99885.81;4384769;32;20021;-84
2022/04/27 04:57:07;;;;;;;;;;;;;;;16.62;57.58;99889.22;4376284;32;19986;-79
2022/04/27 04:59:47;;;;;;;;;;;;;;;16.61;57.19;99890.09;4376323;32;20236;-80
2022/04/27 05:02:16;;;;;;;;;;;;;;;16.63;57.77;99883.12;4384093;32;19982;-86
2022/04/27 05:04:54;;;;;;;;;;;;;;;16.64;57.76;99890.09;4383530;32;20732;-81
2022/04/27 05:07:30;;;;;;;;;;;;;;;16.58;58.42;99892.75;4380537;32;20032;-81
2022/04/27 05:10:02;;;;;;;;;;;;;;;16.66;58.32;99901.41;4383997;32;19990;-80
2022/04/27 05:12:37;;;;;;;;;;;;;;;16.60;58.43;99901.44;4370225;32;19996;-81
2022/04/27 05:15:17;;;;;;;;;;;;;;;16.72;58.21;99906.59;4377405;32;20634;-79
2022/04/27 05:17:56;;;;;;;;;;;;;;;16.70;58.24;99907.47;4384078;32;19979;-81
2022/04/27 05:20:29;;;;;;;;;;;;;;;16.78;58.43;99915.28;4382650;32;20506;-80
2022/04/27 05:23:01;;;;;;;;;;;;;;;16.85;57.61;99923.06;4381001;32;20019;-80
2022/04/27 05:25:33;;;;;;;;;;;;;;;16.82;58.34;99922.22;4386390;32;20042;-82
2022/04/27 05:28:08;;;;;;;;;;;;;;;17.00;57.74;99919.44;4384708;32;19995;-82
2022/04/27 05:33:32;;;;;;;;;;;;;;;17.23;56.52;99918.34;4381812;32;20040;-82
2022/04/27 05:36:08;;;;;;;;;;;;;;;17.37;55.10;99911.25;4371721;32;19975;-81
2022/04/27 05:38:48;;;;;;;;;;;;;;;17.45;54.24;99917.25;4383746;32;19994;-81
2022/04/27 05:41:20;;;;;;;;;;;;;;;17.32;54.83;99924.37;4386430;32;19997;-83
2022/04/27 05:43:52;;;;;;;;;;;;;;;17.55;53.82;99921.53;4372849;32;19983;-82
2022/04/27 05:46:25;;;;;;;;;;;;;;;17.39;54.38;99919.97;4373145;32;19983;-82
2022/04/27 05:49:00;;;;;;;;;;;;;;;17.16;53.25;99934.09;4372427;32;20378;-80
2022/04/27 05:51:36;;;;;;;;;;;;;;;17.50;53.83;99931.16;4379243;32;20775;-81
2022/04/27 05:54:07;;;;;;;;;;;;;;;17.58;53.17;99931.97;4373388;32;20004;-81
2022/04/27 05:56:38;;;;;;;;;;;;;;;17.59;52.51;99938.94;4385200;32;20365;-80
2022/04/27 05:59:06;;;;;;;;;;;;;;;17.79;52.78;99937.88;4386760;32;19983;-80
2022/04/27 06:01:36;;;;;;;;;;;;;;;17.87;52.52;99938.66;4384640;32;20420;-79
2022/04/27 06:04:07;;;;;;;;;;;;;;;17.90;52.54;99933.37;4382477;32;20013;-79
2022/04/27 06:06:39;;;;;;;;;;;;;;;18.02;51.92;99937.56;4388688;32;20324;-79
2022/04/27 06:09:08;;;;;;;;;;;;;;;17.98;50.66;99936.75;4380302;32;20034;-79
2022/04/27 06:11:39;;;;;;;;;;;;;;;18.08;50.56;99943.59;4383706;32;19995;-79
2022/04/27 06:14:16;;;;;;;;;;;;;;;18.02;51.09;99942.81;4375847;32;19985;-79
2022/04/27 06:16:47;;;;;;;;;;;;;;;18.30;50.69;99943.31;4362163;32;20038;-80
2022/04/27 06:19:19;;;;;;;;;;;;;;;18.41;48.86;99951.03;4383658;32;20014;-79
2022/04/27 06:21:51;;;;;;;;;;;;;;;18.35;49.64;99952.00;4385061;32;19994;-79
2022/04/27 06:24:26;;;;;;;;;;;;;;;18.17;49.82;99957.47;4384913;32;20026;-80
2022/04/27 06:27:08;;;;;;;;;;;;;;;18.34;48.05;99963.34;4385902;32;19982;-80
2022/04/27 06:29:46;;;;;;;;;;;;;;;18.47;47.63;99962.28;4386488;32;19990;-81
2022/04/27 06:32:19;;;;;;;;;;;;;;;18.36;49.09;99962.44;4385567;32;20049;-80
2022/04/27 06:35:04;;;;;;;;;;;;;;;18.45;48.82;99973.72;4371189;32;19987;-81
2022/04/27 06:37:40;;;;;;;;;;;;;;;18.85;47.54;99963.50;4370100;32;20029;-80
2022/04/27 06:40:14;;;;;;;;;;;;;;;19.35;44.88;99969.66;4377872;32;19983;-79
2022/04/27 06:42:46;;;;;;;;;;;;;;;19.19;45.36;99978.72;4385160;32;20320;-81
2022/04/27 06:45:28;;;;;;;;;;;;;;;18.87;45.79;99966.12;4386100;32;19998;-80
2022/04/27 06:48:15;;;;;;;;;;;;;;;18.83;47.73;99965.31;4374526;32;20109;-82
2022/04/27 06:51:04;;;;;;;;;;;;;;;18.82;47.15;99979.28;4378799;32;19987;-81
2022/04/27 06:53:43;;;;;;;;;;;;;;;18.68;49.29;99976.00;4384800;32;19993;-80
2022/04/27 06:56:23;;;;;;;;;;;;;;;18.36;51.09;99985.16;4384337;32;20283;-83
2022/04/27 06:58:57;;;;;;;;;;;;;;;18.24;52.35;99980.09;4385570;32;19975;-81
2022/04/27 07:01:32;;;;;;;;;;;;;;;18.20;52.46;99983.66;4396187;32;20324;-81
2022/04/27 07:04:11;;;;;;;;;;;;;;;18.15;52.68;99993.31;4384642;32;20323;-82
2022/04/27 07:06:45;;;;;;;;;;;;;;;18.12;53.12;99992.47;4373583;32;19990;-84
2022/04/27 07:09:15;;;;;;;;;;;;;;;18.04;53.58;99994.31;4381967;32;20022;-79
2022/04/27 07:11:52;;;;;;;;;;;;;;;18.13;53.00;99988.97;4369812;32;20034;-81
2022/04/27 07:14:24;;;;;;;;;;;;;;;18.13;52.85;99993.34;4384961;32;20004;-81
2022/04/27 07:16:57;;;;;;;;;;;;;;;18.17;53.11;100000.25;4385205;32;20035;-79
2022/04/27 07:19:33;;;;;;;;;;;;;;;18.27;52.07;100001.00;4385522;32;19971;-79
2022/04/27 07:22:10;;;;;;;;;;;;;;;17.88;53.85;99998.00;4385955;32;19993;-82
2022/04/27 07:24:44;;;;;;;;;;;;;;;18.07;53.51;100004.75;4385150;32;20395;-78
2022/04/27 07:27:17;;;;;;;;;;;;;;;18.19;53.19;99997.59;4379835;32;20007;-80
2022/04/27 07:29:51;;;;;;;;;;;;;;;18.12;52.43;99997.72;4372373;32;20260;-79
2022/04/27 07:32:29;;;;;;;;;;;;;;;18.36;50.74;100006.13;4383711;32;19975;-79
2022/04/27 07:35:05;;;;;;;;;;;;;;;18.20;52.46;100004.59;4381822;32;19998;-80
2022/04/27 07:37:42;;;;;;;;;;;;;;;18.44;51.36;100009.53;4377326;32;20073;-81
2022/04/27 07:40:14;;;;;;;;;;;;;;;18.30;50.97;100011.47;4388772;32;19978;-81
2022/04/27 07:42:48;;;;;;;;;;;;;;;18.52;51.14;100012.91;4378910;32;20004;-81
2022/04/27 07:45:22;;;;;;;;;;;;;;;18.62;51.41;100018.03;4387774;32;20044;-82
2022/04/27 07:47:57;;;;;;;;;;;;;;;18.65;51.78;100007.50;4379073;32;20695;-81
2022/04/27 07:50:32;;;;;;;;;;;;;;;18.69;50.58;100014.41;4377268;32;19975;-81
2022/04/27 07:53:12;;;;;;;;;;;;;;;18.53;51.45;100012.00;4377479;32;20021;-81
2022/04/27 07:55:47;;;;;;;;;;;;;;;18.41;52.46;100014.81;4379508;32;19983;-81
2022/04/27 07:58:19;;;;;;;;;;;;;;;18.32;53.20;100025.41;4386823;32;19996;-83
2022/04/27 08:00:54;;;;;;;;;;;;;;;17.91;54.34;100024.16;4378169;32;19967;-83
2022/04/27 08:03:28;;;;;;;;;;;;;;;17.54;56.21;100029.72;4378844;32;20346;-82
2022/04/27 08:06:01;;;;;;;;;;;;;;;18.36;52.20;100027.97;4377918;32;20046;-81
2022/04/27 08:08:44;;;;;;;;;;;;;;;18.72;50.67;100020.53;4374961;32;19982;-82
2022/04/27 08:11:17;;;;;;;;;;;;;;;18.89;50.32;100028.16;4375898;32;19982;-83
2022/04/27 08:13:51;;;;;;;;;;;;;;;18.94;48.62;100025.47;4391858;32;19978;-83
2022/04/27 08:16:24;;;;;;;;;;;;;;;18.66;51.21;100024.94;4377214;32;19992;-84
2022/04/27 08:18:57;;;;;;;;;;;;;;;18.86;48.95;100025.59;4374044;32;20050;-83
2022/04/27 08:21:27;;;;;;;;;;;;;;;18.88;48.72;100029.03;4376998;32;19997;-82
2022/04/27 08:23:57;;;;;;;;;;;;;;;18.98;47.32;100033.25;4376077;32;19998;-82
2022/04/27 08:26:30;;;;;;;;;;;;;;;19.13;48.47;100036.53;4377170;32;20020;-81
2022/04/27 08:29:02;;;;;;;;;;;;;;;18.70;50.43;100037.16;4385858;32;20342;-81
2022/04/27 08:31:35;;;;;;;;;;;;;;;18.72;49.85;100035.34;4377205;32;19974;-81
2022/04/27 08:34:07;;;;;;;;;;;;;;;19.19;48.66;100042.56;4378712;32;19986;-80
2022/04/27 08:36:37;;;;;;;;;;;;;;;19.28;48.64;100046.78;4380939;32;20001;-80
2022/04/27 08:39:08;;;;;;;;;;;;;;;19.13;49.59;100047.03;4395085;32;20001;-81
2022/04/27 08:41:40;;;;;;;;;;;;;;;18.96;49.74;100049.91;4384858;32;19979;-81
2022/04/27 08:44:11;;;;;;;;;;;;;;;18.44;49.54;100046.25;4370984;32;19990;-81
2022/04/27 08:46:43;;;;;;;;;;;;;;;18.99;47.85;100045.50;4384195;32;20000;-80
2022/04/27 08:49:16;;;;;;;;;;;;;;;18.12;53.11;100044.88;4384501;32;20046;-80
2022/04/27 08:51:48;;;;;;;;;;;;;;;18.39;53.14;100041.94;4383942;32;20029;-80
2022/04/27 08:54:19;;;;;;;;;;;;;;;18.93;49.97;100042.97;4382166;32;20002;-81
2022/04/27 08:56:49;;;;;;;;;;;;;;;19.16;50.15;100032.09;4395822;32;20081;-81
2022/04/27 08:59:21;;;;;;;;;;;;;;;19.34;49.28;100033.56;4384274;32;20729;-81
2022/04/27 09:01:53;;;;;;;;;;;;;;;19.29;49.49;100027.53;4385298;32;20009;-79
2022/04/27 09:04:25;;;;;;;;;;;;;;;19.61;48.03;100033.97;4386709;32;20041;-81
2022/04/27 09:07:02;;;;;;;;;;;;;;;19.74;47.50;100030.28;4371036;32;20001;-81
2022/04/27 09:09:36;;;;;;;;;;;;;;;19.79;48.71;100038.94;4359157;32;20016;-82
2022/04/27 09:12:14;;;;;;;;;;;;;;;19.87;47.41;100042.28;4384571;32;22481;-80
2022/04/27 09:14:45;;;;;;;;;;;;;;;19.58;50.12;100044.53;4383550;32;19986;-81
2022/04/27 09:20:52;;;;;;;;;;;;;;;19.81;47.96;100037.13;4379546;32;19989;-80
2022/04/27 09:23:23;;;;;;;;;;;;;;;20.09;47.10;100031.34;4384875;32;20025;-81
2022/04/27 09:25:56;;;;;;;;;;;;;;;19.58;49.59;100036.66;4385597;32;19989;-81
2022/04/27 09:28:34;;;;;;;;;;;;;;;20.00;46.98;100036.78;4386681;32;20344;-83
2022/04/27 09:31:04;;;;;;;;;;;;;;;20.34;47.34;100037.84;4385456;32;20001;-81
2022/04/27 09:33:36;;;;;;;;;;;;;;;19.59;49.70;100036.66;4385012;32;19998;-82
2022/04/27 09:36:23;;;;;;;;;;;;;;;19.79;49.97;100041.56;4385363;32;20034;-81
2022/04/27 09:38:54;;;;;;;;;;;;;;;20.30;45.77;100030.06;4387066;32;19978;-82
2022/04/27 09:41:42;;;;;;;;;;;;;;;20.39;45.74;100036.00;4373532;32;19974;-80
2022/04/27 09:44:35;;;;;;;;;;;;;;;20.33;45.60;100030.87;4386347;32;20323;-81
2022/04/27 09:47:12;;;;;;;;;;;;;;;20.41;46.33;100034.19;4385565;32;19979;-81
2022/04/27 09:49:44;;;;;;;;;;;;;;;20.21;45.40;100037.22;4373986;32;20713;-79
2022/04/27 09:52:18;;;;;;;;;;;;;;;19.97;47.08;100029.81;4386970;32;20039;-82
2022/04/27 09:54:49;;;;;;;;;;;;;;;19.61;48.99;100032.22;4385361;32;20025;-80
2022/04/27 09:57:22;;;;;;;;;;;;;;;19.93;48.34;100031.66;4386342;32;19979;-80
2022/04/27 09:59:55;;;;;;;;;;;;;;;20.10;46.54;100027.81;4380497;32;20033;-82
2022/04/27 10:02:43;;;;;;;;;;;;;;;19.60;48.51;100032.25;4380951;32;19994;-82
2022/04/27 10:05:17;;;;;;;;;;;;;;;19.89;47.58;100037.88;4371294;32;19976;-81
2022/04/27 10:07:53;;;;;;;;;;;;;;;20.11;47.33;100026.94;4384454;32;20033;-82
2022/04/27 10:10:27;;;;;;;;;;;;;;;19.95;46.54;100040.37;4386289;32;21304;-84
2022/04/27 10:13:01;;;;;;;;;;;;;;;19.73;47.15;100039.06;4372236;32;19998;-80
2022/04/27 10:15:36;;;;;;;;;;;;;;;19.72;47.55;100047.84;4386426;32;19982;-80
2022/04/27 10:18:07;;;;;;;;;;;;;;;20.09;45.79;100034.00;4382235;32;20037;-79
2022/04/27 10:20:40;;;;;;;;;;;;;;;19.67;47.66;100047.03;4371445;32;19995;-80
2022/04/27 10:23:22;;;;;;;;;;;;;;;19.83;48.07;100050.25;4369903;32;19975;-82
2022/04/27 10:26:06;;;;;;;;;;;;;;;19.71;48.35;100046.09;4370131;32;20006;-81
2022/04/27 10:28:40;;;;;;;;;;;;;;;19.30;50.20;100050.25;4394659;32;20022;-81
2022/04/27 10:31:11;;;;;;;;;;;;;;;19.26;49.71;100059.94;4361444;32;20331;-81
2022/04/27 10:33:53;;;;;;;;;;;;;;;19.38;49.52;100053.63;4386498;32;20057;-81
2022/04/27 10:36:29;;;;;;;;;;;;;;;19.37;50.35;100054.53;4373363;32;19978;-79
2022/04/27 10:39:20;;;;;;;;;;;;;;;19.44;49.97;100063.16;4386802;32;20010;-81
2022/04/27 10:42:17;;;;;;;;;;;;;;;19.21;51.18;100066.16;4386599;32;20041;-81
2022/04/27 10:44:50;;;;;;;;;;;;;;;19.16;52.01;100058.34;4386099;32;20037;-79
2022/04/27 10:47:23;;;;;;;;;;;;;;;19.23;50.90;100064.37;4385971;32;20374;-81
2022/04/27 10:50:14;;;;;;;;;;;;;;;19.19;51.66;100063.53;4384181;32;20057;-77
2022/04/27 10:52:55;;;;;;;;;;;;;;;18.86;51.58;100058.78;4385201;32;19998;-79
2022/04/27 10:55:38;;;;;;;;;;;;;;;18.78;51.72;100066.78;4368982;32;19982;-83
2022/04/27 10:58:30;;;;;;;;;;;;;;;18.59;52.00;100053.87;4375913;32;20316;-78
2022/04/27 11:01:02;;;;;;;;;;;;;;;18.42;53.28;100057.63;4370334;32;20006;-80
2022/04/27 11:03:39;;;;;;;;;;;;;;;18.56;52.93;100059.16;4379765;32;19996;-80
2022/04/27 11:06:13;;;;;;;;;;;;;;;18.63;52.84;100056.47;4377079;32;21022;-79
2022/04/27 11:08:55;;;;;;;;;;;;;;;18.68;52.42;100057.28;4370214;32;19979;-79
2022/04/27 11:11:31;;;;;;;;;;;;;;;18.56;52.37;100066.16;4383372;32;20020;-78
2022/04/27 11:14:06;;;;;;;;;;;;;;;18.74;51.46;100057.22;4382495;32;19989;-80
2022/04/27 11:16:47;;;;;;;;;;;;;;;18.08;53.89;100066.72;4383914;32;20025;-80
2022/04/27 11:19:18;;;;;;;;;;;;;;;18.22;52.79;100068.31;4384658;32;20008;-78
2022/04/27 11:21:51;;;;;;;;;;;;;;;18.35;52.94;100069.94;4384531;32;20009;-80
2022/04/27 11:24:23;;;;;;;;;;;;;;;18.49;52.09;100072.38;4383628;32;20004;-80
2022/04/27 11:26:53;;;;;;;;;;;;;;;18.52;51.70;100070.56;4386162;32;20381;-79
2022/04/27 11:29:28;;;;;;;;;;;;;;;18.55;51.50;100070.53;4384311;32;20024;-78
2022/04/27 11:31:59;;;;;;;;;;;;;;;17.93;53.87;100068.63;4384414;32;20129;-79
2022/04/27 11:34:34;;;;;;;;;;;;;;;18.25;53.23;100068.28;4386148;32;20025;-78
2022/04/27 11:37:18;;;;;;;;;;;;;;;18.27;53.19;100070.00;4372776;32;19975;-79
2022/04/27 11:39:51;;;;;;;;;;;;;;;17.73;55.25;100076.66;4383798;32;20316;-80
2022/04/27 11:42:22;;;;;;;;;;;;;;;18.15;53.40;100064.03;4383347;32;20037;-79
2022/04/27 11:44:53;;;;;;;;;;;;;;;18.23;53.63;100077.94;4391812;32;20036;-82
2022/04/27 11:47:31;;;;;;;;;;;;;;;17.98;54.56;100080.81;4392058;32;19982;-80
2022/04/27 11:50:05;;;;;;;;;;;;;;;17.60;54.94;100076.78;4381022;32;20340;-79
2022/04/27 11:52:39;;;;;;;;;;;;;;;17.77;53.75;100078.41;4357403;32;20054;-79
2022/04/27 11:55:15;;;;;;;;;;;;;;;17.84;52.83;100078.34;4384417;32;19994;-81
2022/04/27 11:57:47;;;;;;;;;;;;;;;17.86;53.12;100078.31;4371990;32;19983;-80
2022/04/27 12:00:20;;;;;;;;;;;;;;;17.70;53.69;100082.78;4385687;32;19986;-80
2022/04/27 12:03:03;;;;;;;;;;;;;;;17.53;54.41;100075.09;4384159;32;20324;-80
2022/04/27 12:05:38;;;;;;;;;;;;;;;17.85;53.45;100081.81;4375971;32;20003;-80
2022/04/27 12:08:19;;;;;;;;;;;;;;;17.85;53.14;100084.44;4380139;32;20005;-80
2022/04/27 12:10:52;;;;;;;;;;;;;;;17.75;53.85;100080.16;4369679;32;20432;-80
2022/04/27 12:13:27;;;;;;;;;;;;;;;17.77;53.97;100073.16;4381006;32;20413;-81
2022/04/27 12:16:02;;;;;;;;;;;;;;;17.67;54.21;100086.31;4388266;32;20048;-82
2022/04/27 12:18:38;;;;;;;;;;;;;;;17.59;54.14;100085.50;4375321;32;20382;-81
2022/04/27 12:21:20;;;;;;;;;;;;;;;17.64;54.41;100078.50;4391920;32;20050;-80
2022/04/27 12:24:00;;;;;;;;;;;;;;;17.54;54.07;100082.06;4386874;32;19997;-84
2022/04/27 12:26:39;;;;;;;;;;;;;;;17.41;54.49;100075.19;4379038;32;20394;-82
2022/04/27 12:29:11;;;;;;;;;;;;;;;17.69;53.29;100074.97;4377494;32;20000;-82
2022/04/27 12:31:42;;;;;;;;;;;;;;;17.28;54.47;100079.66;4390764;32;20045;-80
2022/04/27 12:37:46;;;;;;;;;;;;;;;17.18;54.50;100076.22;4377893;32;20029;-82
2022/04/27 12:40:13;;;;;;;;;;;;;;;17.01;55.50;100075.50;4388103;32;19998;-82
2022/04/27 12:43:08;;;;;;;;;;;;;;;17.32;54.23;100075.25;4374335;32;19998;-82
2022/04/27 12:46:04;;;;;;;;;;;;;;;17.14;55.04;100071.91;4376629;32;19975;-82
2022/04/27 12:48:42;;;;;;;;;;;;;;;17.08;55.68;100082.41;4376368;32;21023;-82
2022/04/27 12:51:17;;;;;;;;;;;;;;;17.32;54.77;100075.25;4382717;32;20191;-82
2022/04/27 12:53:52;;;;;;;;;;;;;;;16.99;55.42;100081.59;4394302;32;19979;-82
2022/04/27 12:56:35;;;;;;;;;;;;;;;16.92;55.79;100078.16;4380824;32;20032;-82
2022/04/27 12:59:11;;;;;;;;;;;;;;;16.81;56.09;100082.56;4376065;32;20024;-82
2022/04/27 13:01:47;;;;;;;;;;;;;;;16.68;57.13;100081.72;4376790;32;20845;-82
2022/04/27 13:04:23;;;;;;;;;;;;;;;16.90;57.16;100072.06;4379191;32;20461;-81
2022/04/27 13:06:57;;;;;;;;;;;;;;;16.58;58.11;100083.53;4387983;32;19975;-83
2022/04/27 13:12:35;;;;;;;;;;;;;;;16.71;58.14;100085.19;4378292;32;21011;-81
2022/04/27 13:15:06;;;;;;;;;;;;;;;16.28;59.49;100082.78;4377946;32;19990;-82
2022/04/27 13:17:39;;;;;;;;;;;;;;;16.41;59.20;100082.75;4375924;32;20139;-80
2022/04/27 13:20:14;;;;;;;;;;;;;;;16.43;59.15;100079.25;4369458;32;19982;-83
2022/04/27 13:22:57;;;;;;;;;;;;;;;16.37;59.40;100081.00;4377930;32;19982;-82
2022/04/27 13:25:31;;;;;;;;;;;;;;;16.50;58.76;100077.47;4383002;32;20013;-83
2022/04/27 13:28:07;;;;;;;;;;;;;;;16.51;58.95;100079.22;4378237;32;20688;-81
2022/04/27 13:30:46;;;;;;;;;;;;;;;16.21;60.31;100091.50;4383431;32;19982;-86
2022/04/27 13:33:23;;;;;;;;;;;;;;;16.39;59.71;100085.34;4392109;32;20348;-86